sensor_id;sensor_type;location;lat;lon;timestamp;temperature;humidity
17170;DHT22;8700;48.222;16.342;2022-09-09T00:00:00;19.30;99.90
17170;DHT22;8700;48.222;16.342;2022-09-09T00:03:25;19.30;99.90
17170;DHT22;8700;48.222;16.342;2022-09-09T00:06:56;19.30;99.90
17170;DHT22;8700;48.222;16.342;2022-09-09T00:10:26;19.30;99.90
17170;DHT22;8700;48.222;16.342;2022-09-09T00:13:52;19.20;99.90
17170;DHT22;8700;48.222;16.342;2022-09-09T00:17:21;19.20;99.90
17170;DHT22;8700;48.222;16.342;2022-09-09T00:20:49;19.30;99.90
17170;DHT22;8700;48.222;16.342;2022-09-09T00:24:23;19.20;99.90
17170;DHT22;8700;48.222;16.342;2022-09-09T00:27:48;19.20;99.90
17170;DHT22;8700;48.222;16.342;2022-09-09T00:31:13;19.30;99.90
17170;DHT22;8700;48.222;16.342;2022-09-09T00:34:46;19.30;99.90
17170;DHT22;8700;48.222;16.342;2022-09-09T00:38:12;19.40;99.90
17170;DHT22;8700;48.222;16.342;2022-09-09T00:41:47;19.30;99.90
17170;DHT22;8700;48.222;16.342;2022-09-09T00:45:25;19.20;99.90
17170;DHT22;8700;48.222;16.342;2022-09-09T00:48:57;19.10;99.90
17170;DHT22;8700;48.222;16.342;2022-09-09T00:52:28;19.10;99.90
17170;DHT22;8700;48.222;16.342;2022-09-09T00:56:00;19.10;99.90
17170;DHT22;8700;48.222;16.342;2022-09-09T00:59:32;19.00;99.90
17170;DHT22;8700;48.222;16.342;2022-09-09T01:03:07;18.90;99.90
17170;DHT22;8700;48.222;16.342;2022-09-09T01:06:33;18.90;99.90
17170;DHT22;8700;48.222;16.342;2022-09-09T01:09:58;19.00;99.90
17170;DHT22;8700;48.222;16.342;2022-09-09T01:13:24;19.00;99.90
17170;DHT22;8700;48.222;16.342;2022-09-09T01:16:46;18.90;99.90
17170;DHT22;8700;48.222;16.342;2022-09-09T01:20:14;18.70;99.90
17170;DHT22;8700;48.222;16.342;2022-09-09T01:27:35;18.50;99.90
17170;DHT22;8700;48.222;16.342;2022-09-09T01:30:57;18.30;99.90
17170;DHT22;8700;48.222;16.342;2022-09-09T01:34:20;18.40;99.90
17170;DHT22;8700;48.222;16.342;2022-09-09T01:37:41;18.40;99.90
17170;DHT22;8700;48.222;16.342;2022-09-09T01:41:04;18.40;99.90
17170;DHT22;8700;48.222;16.342;2022-09-09T01:44:27;18.20;99.90
17170;DHT22;8700;48.222;16.342;2022-09-09T01:47:49;18.30;99.90
17170;DHT22;8700;48.222;16.342;2022-09-09T01:51:11;18.30;99.90
17170;DHT22;8700;48.222;16.342;2022-09-09T01:54:33;18.40;99.90
17170;DHT22;8700;48.222;16.342;2022-09-09T01:58:09;18.50;99.90
17170;DHT22;8700;48.222;16.342;2022-09-09T02:01:42;18.40;99.90
17170;DHT22;8700;48.222;16.342;2022-09-09T02:05:16;18.30;99.90
17170;DHT22;8700;48.222;16.342;2022-09-09T02:08:42;18.40;99.90
17170;DHT22;8700;48.222;16.342;2022-09-09T02:12:08;18.40;99.90
17170;DHT22;8700;48.222;16.342;2022-09-09T02:15:36;18.40;99.90
17170;DHT22;8700;48.222;16.342;2022-09-09T02:19:06;18.20;99.90
17170;DHT22;8700;48.222;16.342;2022-09-09T02:22:31;18.10;99.90
17170;DHT22;8700;48.222;16.342;2022-09-09T02:25:56;18.20;99.90
17170;DHT22;8700;48.222;16.342;2022-09-09T02:29:21;18.20;99.90
17170;DHT22;8700;48.222;16.342;2022-09-09T02:32:45;18.20;99.90
17170;DHT22;8700;48.222;16.342;2022-09-09T02:36:10;18.60;99.90
17170;DHT22;8700;48.222;16.342;2022-09-09T02:39:33;18.60;99.90
17170;DHT22;8700;48.222;16.342;2022-09-09T02:42:55;18.60;99.90
17170;DHT22;8700;48.222;16.342;2022-09-09T02:46:28;18.50;99.90
17170;DHT22;8700;48.222;16.342;2022-09-09T02:50:00;18.30;99.90
17170;DHT22;8700;48.222;16.342;2022-09-09T02:53:30;18.50;99.90
17170;DHT22;8700;48.222;16.342;2022-09-09T02:56:54;18.70;99.90
17170;DHT22;8700;48.222;16.342;2022-09-09T03:00:23;18.70;99.90
17170;DHT22;8700;48.222;16.342;2022-09-09T03:03:45;18.70;99.90
17170;DHT22;8700;48.222;16.342;2022-09-09T03:07:07;18.80;99.90
17170;DHT22;8700;48.222;16.342;2022-09-09T03:10:31;18.80;99.90
17170;DHT22;8700;48.222;16.342;2022-09-09T03:13:53;18.90;99.90
17170;DHT22;8700;48.222;16.342;2022-09-09T03:17:15;18.80;99.90
17170;DHT22;8700;48.222;16.342;2022-09-09T03:20:37;18.70;99.90
17170;DHT22;8700;48.222;16.342;2022-09-09T03:23:59;18.70;99.90
17170;DHT22;8700;48.222;16.342;2022-09-09T03:27:22;18.70;99.90
17170;DHT22;8700;48.222;16.342;2022-09-09T03:30:43;18.60;99.90
17170;DHT22;8700;48.222;16.342;2022-09-09T03:34:06;18.50;99.90
17170;DHT22;8700;48.222;16.342;2022-09-09T03:37:27;18.40;99.90
17170;DHT22;8700;48.222;16.342;2022-09-09T03:40:51;18.30;99.90
17170;DHT22;8700;48.222;16.342;2022-09-09T03:44:16;18.30;99.90
17170;DHT22;8700;48.222;16.342;2022-09-09T03:47:37;18.20;99.90
17170;DHT22;8700;48.222;16.342;2022-09-09T03:50:59;18.10;99.90
17170;DHT22;8700;48.222;16.342;2022-09-09T03:54:21;18.00;99.90
17170;DHT22;8700;48.222;16.342;2022-09-09T03:57:42;18.00;99.90
17170;DHT22;8700;48.222;16.342;2022-09-09T04:01:07;17.90;99.90
17170;DHT22;8700;48.222;16.342;2022-09-09T04:04:29;17.80;99.90
17170;DHT22;8700;48.222;16.342;2022-09-09T04:07:51;17.70;99.90
17170;DHT22;8700;48.222;16.342;2022-09-09T04:11:12;17.70;99.90
17170;DHT22;8700;48.222;16.342;2022-09-09T04:14:34;17.70;99.90
17170;DHT22;8700;48.222;16.342;2022-09-09T04:17:57;17.70;99.90
17170;DHT22;8700;48.222;16.342;2022-09-09T04:21:18;17.70;99.90
17170;DHT22;8700;48.222;16.342;2022-09-09T04:24:39;17.70;99.90
17170;DHT22;8700;48.222;16.342;2022-09-09T04:28:02;17.70;99.90
17170;DHT22;8700;48.222;16.342;2022-09-09T04:31:23;17.60;99.90
17170;DHT22;8700;48.222;16.342;2022-09-09T04:34:47;17.70;99.90
17170;DHT22;8700;48.222;16.342;2022-09-09T04:38:08;17.50;99.90
17170;DHT22;8700;48.222;16.342;2022-09-09T04:41:30;17.60;99.90
17170;DHT22;8700;48.222;16.342;2022-09-09T04:44:52;17.50;99.90
17170;DHT22;8700;48.222;16.342;2022-09-09T04:48:18;17.50;99.90
17170;DHT22;8700;48.222;16.342;2022-09-09T04:51:42;17.40;99.90
17170;DHT22;8700;48.222;16.342;2022-09-09T04:55:06;17.40;99.90
17170;DHT22;8700;48.222;16.342;2022-09-09T04:58:29;17.40;99.90
17170;DHT22;8700;48.222;16.342;2022-09-09T05:01:53;17.40;99.90
17170;DHT22;8700;48.222;16.342;2022-09-09T05:05:15;17.30;99.90
17170;DHT22;8700;48.222;16.342;2022-09-09T05:08:43;17.30;99.90
17170;DHT22;8700;48.222;16.342;2022-09-09T05:12:05;17.40;99.90
17170;DHT22;8700;48.222;16.342;2022-09-09T05:15:28;17.40;99.90
17170;DHT22;8700;48.222;16.342;2022-09-09T05:18:50;17.20;99.90
17170;DHT22;8700;48.222;16.342;2022-09-09T05:22:12;17.50;99.90
17170;DHT22;8700;48.222;16.342;2022-09-09T05:25:35;17.50;99.90
17170;DHT22;8700;48.222;16.342;2022-09-09T05:29:00;17.50;99.90
17170;DHT22;8700;48.222;16.342;2022-09-09T05:32:22;17.60;99.90
17170;DHT22;8700;48.222;16.342;2022-09-09T05:35:45;17.50;99.90
17170;DHT22;8700;48.222;16.342;2022-09-09T05:39:07;17.60;99.90
17170;DHT22;8700;48.222;16.342;2022-09-09T05:42:31;17.70;99.90
17170;DHT22;8700;48.222;16.342;2022-09-09T05:46:00;17.80;99.90
17170;DHT22;8700;48.222;16.342;2022-09-09T05:49:22;17.90;99.90
17170;DHT22;8700;48.222;16.342;2022-09-09T05:52:43;18.00;99.90
17170;DHT22;8700;48.222;16.342;2022-09-09T05:56:06;18.20;99.90
17170;DHT22;8700;48.222;16.342;2022-09-09T05:59:31;18.20;99.90
17170;DHT22;8700;48.222;16.342;2022-09-09T06:02:53;18.30;99.90
17170;DHT22;8700;48.222;16.342;2022-09-09T06:06:16;18.30;99.90
17170;DHT22;8700;48.222;16.342;2022-09-09T06:09:41;18.20;99.90
17170;DHT22;8700;48.222;16.342;2022-09-09T06:13:02;18.30;99.90
17170;DHT22;8700;48.222;16.342;2022-09-09T06:16:27;18.40;99.90
17170;DHT22;8700;48.222;16.342;2022-09-09T06:19:49;18.30;99.90
17170;DHT22;8700;48.222;16.342;2022-09-09T06:23:13;18.40;99.90
17170;DHT22;8700;48.222;16.342;2022-09-09T06:26:37;18.40;99.90
17170;DHT22;8700;48.222;16.342;2022-09-09T06:30:01;18.50;99.90
17170;DHT22;8700;48.222;16.342;2022-09-09T06:33:26;18.60;99.90
17170;DHT22;8700;48.222;16.342;2022-09-09T06:36:57;18.70;99.90
17170;DHT22;8700;48.222;16.342;2022-09-09T06:40:19;18.80;99.90
17170;DHT22;8700;48.222;16.342;2022-09-09T06:43:42;18.90;99.90
17170;DHT22;8700;48.222;16.342;2022-09-09T06:47:04;19.20;99.90
17170;DHT22;8700;48.222;16.342;2022-09-09T06:50:28;19.50;99.90
17170;DHT22;8700;48.222;16.342;2022-09-09T06:53:51;19.70;99.90
17170;DHT22;8700;48.222;16.342;2022-09-09T06:57:13;19.90;99.90
17170;DHT22;8700;48.222;16.342;2022-09-09T07:00:34;20.30;99.90
17170;DHT22;8700;48.222;16.342;2022-09-09T07:03:58;20.30;99.90
17170;DHT22;8700;48.222;16.342;2022-09-09T07:07:22;20.60;99.90
17170;DHT22;8700;48.222;16.342;2022-09-09T07:10:46;20.90;99.90
17170;DHT22;8700;48.222;16.342;2022-09-09T07:14:07;21.20;99.90
17170;DHT22;8700;48.222;16.342;2022-09-09T07:17:30;21.30;99.90
17170;DHT22;8700;48.222;16.342;2022-09-09T07:20:55;21.30;99.90
17170;DHT22;8700;48.222;16.342;2022-09-09T07:24:19;21.20;99.90
17170;DHT22;8700;48.222;16.342;2022-09-09T07:27:40;21.20;99.90
17170;DHT22;8700;48.222;16.342;2022-09-09T07:31:03;21.30;99.90
17170;DHT22;8700;48.222;16.342;2022-09-09T07:34:25;21.20;99.90
17170;DHT22;8700;48.222;16.342;2022-09-09T07:37:47;21.30;99.90
17170;DHT22;8700;48.222;16.342;2022-09-09T07:41:12;21.00;99.90
17170;DHT22;8700;48.222;16.342;2022-09-09T07:44:34;20.90;99.90
17170;DHT22;8700;48.222;16.342;2022-09-09T07:47:56;20.90;99.90
17170;DHT22;8700;48.222;16.342;2022-09-09T07:51:21;20.90;99.90
17170;DHT22;8700;48.222;16.342;2022-09-09T07:54:42;21.00;99.90
17170;DHT22;8700;48.222;16.342;2022-09-09T07:58:07;20.90;99.90
17170;DHT22;8700;48.222;16.342;2022-09-09T08:01:30;21.00;99.90
17170;DHT22;8700;48.222;16.342;2022-09-09T08:04:52;21.70;99.90
17170;DHT22;8700;48.222;16.342;2022-09-09T08:08:14;22.20;99.90
17170;DHT22;8700;48.222;16.342;2022-09-09T08:11:38;22.70;99.90
17170;DHT22;8700;48.222;16.342;2022-09-09T08:15:01;22.80;99.90
17170;DHT22;8700;48.222;16.342;2022-09-09T08:18:23;22.90;99.90
17170;DHT22;8700;48.222;16.342;2022-09-09T08:21:45;22.90;99.90
17170;DHT22;8700;48.222;16.342;2022-09-09T08:25:09;23.30;99.90
17170;DHT22;8700;48.222;16.342;2022-09-09T08:28:30;23.60;99.90
17170;DHT22;8700;48.222;16.342;2022-09-09T08:31:55;23.60;99.90
17170;DHT22;8700;48.222;16.342;2022-09-09T08:35:17;24.10;99.90
17170;DHT22;8700;48.222;16.342;2022-09-09T08:38:40;24.10;99.90
17170;DHT22;8700;48.222;16.342;2022-09-09T08:45:55;24.70;99.90
17170;DHT22;8700;48.222;16.342;2022-09-09T08:49:38;25.10;99.90
17170;DHT22;8700;48.222;16.342;2022-09-09T08:53:12;26.30;99.90
17170;DHT22;8700;48.222;16.342;2022-09-09T08:56:36;27.30;99.90
17170;DHT22;8700;48.222;16.342;2022-09-09T08:59:59;27.50;99.90
17170;DHT22;8700;48.222;16.342;2022-09-09T09:03:27;27.20;99.90
17170;DHT22;8700;48.222;16.342;2022-09-09T09:06:58;27.20;99.90
17170;DHT22;8700;48.222;16.342;2022-09-09T09:10:34;27.70;99.90
17170;DHT22;8700;48.222;16.342;2022-09-09T09:14:03;28.60;99.90
17170;DHT22;8700;48.222;16.342;2022-09-09T09:17:27;28.90;98.90
17170;DHT22;8700;48.222;16.342;2022-09-09T09:20:58;29.30;98.90
17170;DHT22;8700;48.222;16.342;2022-09-09T09:24:29;29.70;96.80
17170;DHT22;8700;48.222;16.342;2022-09-09T09:27:58;29.80;96.20
17170;DHT22;8700;48.222;16.342;2022-09-09T09:31:21;29.40;95.20
17170;DHT22;8700;48.222;16.342;2022-09-09T09:34:49;29.30;95.40
17170;DHT22;8700;48.222;16.342;2022-09-09T09:38:17;30.00;94.40
17170;DHT22;8700;48.222;16.342;2022-09-09T09:41:42;31.10;92.90
17170;DHT22;8700;48.222;16.342;2022-09-09T09:45:16;30.80;91.90
17170;DHT22;8700;48.222;16.342;2022-09-09T09:48:41;29.80;91.90
17170;DHT22;8700;48.222;16.342;2022-09-09T09:52:04;29.70;91.90
17170;DHT22;8700;48.222;16.342;2022-09-09T09:55:26;30.10;91.80
17170;DHT22;8700;48.222;16.342;2022-09-09T09:58:52;30.10;88.80
17170;DHT22;8700;48.222;16.342;2022-09-09T10:02:17;29.80;90.00
17170;DHT22;8700;48.222;16.342;2022-09-09T10:05:46;29.10;90.20
17170;DHT22;8700;48.222;16.342;2022-09-09T10:09:21;27.70;91.60
17170;DHT22;8700;48.222;16.342;2022-09-09T10:12:53;28.10;92.10
17170;DHT22;8700;48.222;16.342;2022-09-09T10:20:20;30.40;89.60
17170;DHT22;8700;48.222;16.342;2022-09-09T10:24:01;31.40;87.60
17170;DHT22;8700;48.222;16.342;2022-09-09T10:27:33;32.90;82.90
17170;DHT22;8700;48.222;16.342;2022-09-09T10:31:07;31.90;82.20
17170;DHT22;8700;48.222;16.342;2022-09-09T10:34:50;31.10;83.30
17170;DHT22;8700;48.222;16.342;2022-09-09T10:38:16;29.70;84.40
17170;DHT22;8700;48.222;16.342;2022-09-09T10:41:45;28.50;87.90
17170;DHT22;8700;48.222;16.342;2022-09-09T10:45:17;27.90;89.40
17170;DHT22;8700;48.222;16.342;2022-09-09T10:48:56;28.20;89.80
17170;DHT22;8700;48.222;16.342;2022-09-09T10:52:31;29.20;88.10
17170;DHT22;8700;48.222;16.342;2022-09-09T10:55:57;30.30;88.20
17170;DHT22;8700;48.222;16.342;2022-09-09T10:59:23;31.10;87.00
17170;DHT22;8700;48.222;16.342;2022-09-09T11:02:51;31.30;85.30
17170;DHT22;8700;48.222;16.342;2022-09-09T11:06:16;30.30;86.70
17170;DHT22;8700;48.222;16.342;2022-09-09T11:09:48;29.30;88.10
17170;DHT22;8700;48.222;16.342;2022-09-09T11:13:17;28.60;90.00
17170;DHT22;8700;48.222;16.342;2022-09-09T11:16:42;28.60;90.50
17170;DHT22;8700;48.222;16.342;2022-09-09T11:20:06;28.40;90.50
17170;DHT22;8700;48.222;16.342;2022-09-09T11:23:38;27.80;91.20
17170;DHT22;8700;48.222;16.342;2022-09-09T11:27:08;27.40;92.20
17170;DHT22;8700;48.222;16.342;2022-09-09T11:30:37;27.60;92.20
17170;DHT22;8700;48.222;16.342;2022-09-09T11:34:31;27.90;92.60
17170;DHT22;8700;48.222;16.342;2022-09-09T11:38:08;27.70;92.40
17170;DHT22;8700;48.222;16.342;2022-09-09T11:41:35;27.20;93.50
17170;DHT22;8700;48.222;16.342;2022-09-09T11:45:09;27.50;93.40
17170;DHT22;8700;48.222;16.342;2022-09-09T11:48:35;27.80;93.10
17170;DHT22;8700;48.222;16.342;2022-09-09T11:51:57;28.00;92.70
17170;DHT22;8700;48.222;16.342;2022-09-09T11:55:26;28.00;92.30
17170;DHT22;8700;48.222;16.342;2022-09-09T11:58:55;28.30;92.20
17170;DHT22;8700;48.222;16.342;2022-09-09T12:02:22;28.20;92.10
17170;DHT22;8700;48.222;16.342;2022-09-09T12:05:46;27.80;92.50
17170;DHT22;8700;48.222;16.342;2022-09-09T12:09:13;28.20;92.00
17170;DHT22;8700;48.222;16.342;2022-09-09T12:12:38;27.90;91.80
17170;DHT22;8700;48.222;16.342;2022-09-09T12:16:00;27.90;91.80
17170;DHT22;8700;48.222;16.342;2022-09-09T12:19:27;27.80;91.70
17170;DHT22;8700;48.222;16.342;2022-09-09T12:22:58;27.80;91.60
17170;DHT22;8700;48.222;16.342;2022-09-09T12:26:30;27.80;91.20
17170;DHT22;8700;48.222;16.342;2022-09-09T12:29:57;28.00;91.10
17170;DHT22;8700;48.222;16.342;2022-09-09T12:33:23;28.10;90.60
17170;DHT22;8700;48.222;16.342;2022-09-09T12:36:49;28.10;90.50
17170;DHT22;8700;48.222;16.342;2022-09-09T12:40:21;28.00;90.20
17170;DHT22;8700;48.222;16.342;2022-09-09T12:43:42;27.90;90.20
17170;DHT22;8700;48.222;16.342;2022-09-09T12:47:05;27.80;89.90
17170;DHT22;8700;48.222;16.342;2022-09-09T12:50:30;27.70;90.10
17170;DHT22;8700;48.222;16.342;2022-09-09T12:53:54;27.50;90.00
17170;DHT22;8700;48.222;16.342;2022-09-09T12:57:16;27.00;90.60
17170;DHT22;8700;48.222;16.342;2022-09-09T13:00:49;27.20;90.30
17170;DHT22;8700;48.222;16.342;2022-09-09T13:04:20;27.30;90.20
17170;DHT22;8700;48.222;16.342;2022-09-09T13:07:42;27.00;90.00
17170;DHT22;8700;48.222;16.342;2022-09-09T13:11:08;26.80;90.20
17170;DHT22;8700;48.222;16.342;2022-09-09T13:14:34;26.70;90.70
17170;DHT22;8700;48.222;16.342;2022-09-09T13:18:06;26.50;90.40
17170;DHT22;8700;48.222;16.342;2022-09-09T13:21:33;26.30;90.50
17170;DHT22;8700;48.222;16.342;2022-09-09T13:25:03;26.20;90.70
17170;DHT22;8700;48.222;16.342;2022-09-09T13:28:28;26.20;91.00
17170;DHT22;8700;48.222;16.342;2022-09-09T13:31:53;26.10;91.30
17170;DHT22;8700;48.222;16.342;2022-09-09T13:35:23;26.10;91.30
17170;DHT22;8700;48.222;16.342;2022-09-09T13:38:54;26.00;91.20
17170;DHT22;8700;48.222;16.342;2022-09-09T13:42:24;25.90;91.50
17170;DHT22;8700;48.222;16.342;2022-09-09T13:45:55;25.90;91.70
17170;DHT22;8700;48.222;16.342;2022-09-09T13:49:20;25.90;91.50
17170;DHT22;8700;48.222;16.342;2022-09-09T13:52:42;25.80;91.60
17170;DHT22;8700;48.222;16.342;2022-09-09T13:56:05;25.80;91.60
17170;DHT22;8700;48.222;16.342;2022-09-09T13:59:27;25.60;91.40
17170;DHT22;8700;48.222;16.342;2022-09-09T14:02:50;25.40;91.40
17170;DHT22;8700;48.222;16.342;2022-09-09T14:06:12;25.20;91.90
17170;DHT22;8700;48.222;16.342;2022-09-09T14:09:33;25.10;91.80
17170;DHT22;8700;48.222;16.342;2022-09-09T14:12:56;25.10;91.00
17170;DHT22;8700;48.222;16.342;2022-09-09T14:16:21;25.00;91.30
17170;DHT22;8700;48.222;16.342;2022-09-09T14:19:44;25.10;91.60
17170;DHT22;8700;48.222;16.342;2022-09-09T14:23:07;25.00;94.80
17170;DHT22;8700;48.222;16.342;2022-09-09T14:26:31;24.70;96.20
17170;DHT22;8700;48.222;16.342;2022-09-09T14:29:52;24.50;99.90
17170;DHT22;8700;48.222;16.342;2022-09-09T14:33:16;23.80;99.90
17170;DHT22;8700;48.222;16.342;2022-09-09T14:36:41;23.50;99.90
17170;DHT22;8700;48.222;16.342;2022-09-09T14:40:05;23.40;99.90
17170;DHT22;8700;48.222;16.342;2022-09-09T14:43:27;23.10;99.90
17170;DHT22;8700;48.222;16.342;2022-09-09T14:46:49;22.90;99.90
17170;DHT22;8700;48.222;16.342;2022-09-09T14:50:11;22.60;99.90
17170;DHT22;8700;48.222;16.342;2022-09-09T14:53:35;22.40;99.90
17170;DHT22;8700;48.222;16.342;2022-09-09T14:56:57;22.40;99.90
17170;DHT22;8700;48.222;16.342;2022-09-09T15:00:19;22.40;99.90
17170;DHT22;8700;48.222;16.342;2022-09-09T15:03:43;22.30;99.90
17170;DHT22;8700;48.222;16.342;2022-09-09T15:07:09;22.30;99.90
17170;DHT22;8700;48.222;16.342;2022-09-09T15:10:32;22.20;99.90
17170;DHT22;8700;48.222;16.342;2022-09-09T15:13:53;22.30;99.90
17170;DHT22;8700;48.222;16.342;2022-09-09T15:17:16;22.30;99.90
17170;DHT22;8700;48.222;16.342;2022-09-09T15:20:37;22.20;99.90
17170;DHT22;8700;48.222;16.342;2022-09-09T15:23:59;22.20;99.90
17170;DHT22;8700;48.222;16.342;2022-09-09T15:27:23;22.30;99.90
17170;DHT22;8700;48.222;16.342;2022-09-09T15:30:47;22.30;99.90
17170;DHT22;8700;48.222;16.342;2022-09-09T15:34:08;22.20;99.90
17170;DHT22;8700;48.222;16.342;2022-09-09T15:37:31;22.20;99.90
17170;DHT22;8700;48.222;16.342;2022-09-09T15:40:53;22.20;99.90
17170;DHT22;8700;48.222;16.342;2022-09-09T15:44:17;22.20;99.90
17170;DHT22;8700;48.222;16.342;2022-09-09T15:47:38;22.00;99.90
17170;DHT22;8700;48.222;16.342;2022-09-09T15:51:02;21.90;99.90
17170;DHT22;8700;48.222;16.342;2022-09-09T15:54:25;21.90;99.90
17170;DHT22;8700;48.222;16.342;2022-09-09T15:57:47;21.90;99.90
17170;DHT22;8700;48.222;16.342;2022-09-09T16:01:10;21.90;99.90
17170;DHT22;8700;48.222;16.342;2022-09-09T16:04:32;21.90;99.90
17170;DHT22;8700;48.222;16.342;2022-09-09T16:07:54;21.80;99.90
17170;DHT22;8700;48.222;16.342;2022-09-09T16:11:18;21.70;99.90
17170;DHT22;8700;48.222;16.342;2022-09-09T16:14:40;21.80;99.90
17170;DHT22;8700;48.222;16.342;2022-09-09T16:18:03;21.80;99.90
17170;DHT22;8700;48.222;16.342;2022-09-09T16:21:28;21.80;99.90
17170;DHT22;8700;48.222;16.342;2022-09-09T16:24:50;21.80;99.90
17170;DHT22;8700;48.222;16.342;2022-09-09T16:28:12;21.90;99.90
17170;DHT22;8700;48.222;16.342;2022-09-09T16:31:33;21.90;99.90
17170;DHT22;8700;48.222;16.342;2022-09-09T16:34:56;21.70;99.90
17170;DHT22;8700;48.222;16.342;2022-09-09T16:38:17;21.70;99.90
17170;DHT22;8700;48.222;16.342;2022-09-09T16:41:40;21.80;99.90
17170;DHT22;8700;48.222;16.342;2022-09-09T16:45:03;21.60;99.90
17170;DHT22;8700;48.222;16.342;2022-09-09T16:48:26;21.40;99.90
17170;DHT22;8700;48.222;16.342;2022-09-09T16:51:50;21.20;99.90
17170;DHT22;8700;48.222;16.342;2022-09-09T16:55:13;21.20;99.90
17170;DHT22;8700;48.222;16.342;2022-09-09T16:58:37;21.10;99.90
17170;DHT22;8700;48.222;16.342;2022-09-09T17:01:58;21.00;99.90
17170;DHT22;8700;48.222;16.342;2022-09-09T17:05:20;20.60;99.90
17170;DHT22;8700;48.222;16.342;2022-09-09T17:08:44;20.50;99.90
17170;DHT22;8700;48.222;16.342;2022-09-09T17:12:08;20.70;99.90
17170;DHT22;8700;48.222;16.342;2022-09-09T17:15:31;20.80;99.90
17170;DHT22;8700;48.222;16.342;2022-09-09T17:18:55;20.70;99.90
17170;DHT22;8700;48.222;16.342;2022-09-09T17:22:16;20.60;99.90
17170;DHT22;8700;48.222;16.342;2022-09-09T17:25:41;20.40;99.90
17170;DHT22;8700;48.222;16.342;2022-09-09T17:29:03;19.80;99.90
17170;DHT22;8700;48.222;16.342;2022-09-09T17:32:24;19.70;99.90
17170;DHT22;8700;48.222;16.342;2022-09-09T17:35:45;19.70;99.90
17170;DHT22;8700;48.222;16.342;2022-09-09T17:39:08;19.40;99.90
17170;DHT22;8700;48.222;16.342;2022-09-09T17:42:31;19.40;99.90
17170;DHT22;8700;48.222;16.342;2022-09-09T17:45:52;19.00;99.90
17170;DHT22;8700;48.222;16.342;2022-09-09T17:49:15;18.70;99.90
17170;DHT22;8700;48.222;16.342;2022-09-09T17:52:37;18.90;99.90
17170;DHT22;8700;48.222;16.342;2022-09-09T17:56:04;19.10;99.90
17170;DHT22;8700;48.222;16.342;2022-09-09T17:59:27;19.00;99.90
17170;DHT22;8700;48.222;16.342;2022-09-09T18:02:50;19.10;99.90
17170;DHT22;8700;48.222;16.342;2022-09-09T18:06:13;19.10;99.90
17170;DHT22;8700;48.222;16.342;2022-09-09T18:09:35;19.10;99.90
17170;DHT22;8700;48.222;16.342;2022-09-09T18:12:58;19.10;99.90
17170;DHT22;8700;48.222;16.342;2022-09-09T18:16:28;19.10;99.90
17170;DHT22;8700;48.222;16.342;2022-09-09T18:19:51;19.00;99.90
17170;DHT22;8700;48.222;16.342;2022-09-09T18:23:12;19.10;99.90
17170;DHT22;8700;48.222;16.342;2022-09-09T18:26:34;18.80;99.90
17170;DHT22;8700;48.222;16.342;2022-09-09T18:29:56;18.60;99.90
17170;DHT22;8700;48.222;16.342;2022-09-09T18:33:19;18.60;99.90
17170;DHT22;8700;48.222;16.342;2022-09-09T18:36:41;18.70;99.90
17170;DHT22;8700;48.222;16.342;2022-09-09T18:40:04;18.80;99.90
17170;DHT22;8700;48.222;16.342;2022-09-09T18:43:26;18.80;99.90
17170;DHT22;8700;48.222;16.342;2022-09-09T18:46:48;19.00;99.90
17170;DHT22;8700;48.222;16.342;2022-09-09T18:50:12;18.90;99.90
17170;DHT22;8700;48.222;16.342;2022-09-09T18:53:35;19.00;99.90
17170;DHT22;8700;48.222;16.342;2022-09-09T18:56:56;19.00;99.90
17170;DHT22;8700;48.222;16.342;2022-09-09T19:00:19;18.90;99.90
17170;DHT22;8700;48.222;16.342;2022-09-09T19:03:41;18.90;99.90
17170;DHT22;8700;48.222;16.342;2022-09-09T19:07:04;19.00;99.90
17170;DHT22;8700;48.222;16.342;2022-09-09T19:10:25;18.80;99.90
17170;DHT22;8700;48.222;16.342;2022-09-09T19:13:49;19.00;99.90
17170;DHT22;8700;48.222;16.342;2022-09-09T19:17:11;19.00;99.90
17170;DHT22;8700;48.222;16.342;2022-09-09T19:20:33;19.00;99.90
17170;DHT22;8700;48.222;16.342;2022-09-09T19:23:58;18.90;99.90
17170;DHT22;8700;48.222;16.342;2022-09-09T19:27:20;18.90;99.90
17170;DHT22;8700;48.222;16.342;2022-09-09T19:30:42;18.80;99.90
17170;DHT22;8700;48.222;16.342;2022-09-09T19:34:06;18.80;99.90
17170;DHT22;8700;48.222;16.342;2022-09-09T19:37:28;18.80;99.90
17170;DHT22;8700;48.222;16.342;2022-09-09T19:40:53;18.60;99.90
17170;DHT22;8700;48.222;16.342;2022-09-09T19:44:15;18.60;99.90
17170;DHT22;8700;48.222;16.342;2022-09-09T19:47:37;18.60;99.90
17170;DHT22;8700;48.222;16.342;2022-09-09T19:51:00;18.60;99.90
17170;DHT22;8700;48.222;16.342;2022-09-09T19:54:23;18.10;99.90
17170;DHT22;8700;48.222;16.342;2022-09-09T19:57:47;18.00;99.90
17170;DHT22;8700;48.222;16.342;2022-09-09T20:01:11;18.20;99.90
17170;DHT22;8700;48.222;16.342;2022-09-09T20:04:32;18.40;99.90
17170;DHT22;8700;48.222;16.342;2022-09-09T20:07:54;18.50;99.90
17170;DHT22;8700;48.222;16.342;2022-09-09T20:11:17;18.50;99.90
17170;DHT22;8700;48.222;16.342;2022-09-09T20:14:41;18.40;99.90
17170;DHT22;8700;48.222;16.342;2022-09-09T20:18:02;18.40;99.90
17170;DHT22;8700;48.222;16.342;2022-09-09T20:21:25;18.40;99.90
17170;DHT22;8700;48.222;16.342;2022-09-09T20:24:47;18.40;99.90
17170;DHT22;8700;48.222;16.342;2022-09-09T20:28:08;18.30;99.90
17170;DHT22;8700;48.222;16.342;2022-09-09T20:31:32;18.20;99.90
17170;DHT22;8700;48.222;16.342;2022-09-09T20:34:55;18.30;99.90
17170;DHT22;8700;48.222;16.342;2022-09-09T20:38:16;18.20;99.90
17170;DHT22;8700;48.222;16.342;2022-09-09T20:41:39;18.30;99.90
17170;DHT22;8700;48.222;16.342;2022-09-09T20:45:03;18.30;99.90
17170;DHT22;8700;48.222;16.342;2022-09-09T20:48:26;18.20;99.90
17170;DHT22;8700;48.222;16.342;2022-09-09T20:51:48;18.30;99.90
17170;DHT22;8700;48.222;16.342;2022-09-09T20:55:10;18.30;99.90
17170;DHT22;8700;48.222;16.342;2022-09-09T20:58:32;18.20;99.90
17170;DHT22;8700;48.222;16.342;2022-09-09T21:01:54;18.10;99.90
17170;DHT22;8700;48.222;16.342;2022-09-09T21:05:17;18.20;99.90
17170;DHT22;8700;48.222;16.342;2022-09-09T21:08:39;18.10;99.90
17170;DHT22;8700;48.222;16.342;2022-09-09T21:12:01;18.00;99.90
17170;DHT22;8700;48.222;16.342;2022-09-09T21:15:23;18.00;99.90
17170;DHT22;8700;48.222;16.342;2022-09-09T21:18:45;17.90;99.90
17170;DHT22;8700;48.222;16.342;2022-09-09T21:22:08;18.00;99.90
17170;DHT22;8700;48.222;16.342;2022-09-09T21:25:30;18.00;99.90
17170;DHT22;8700;48.222;16.342;2022-09-09T21:28:52;18.00;99.90
17170;DHT22;8700;48.222;16.342;2022-09-09T21:32:13;17.80;99.90
17170;DHT22;8700;48.222;16.342;2022-09-09T21:35:36;17.60;99.90
17170;DHT22;8700;48.222;16.342;2022-09-09T21:38:59;17.60;99.90
17170;DHT22;8700;48.222;16.342;2022-09-09T21:42:21;17.80;99.90